sensor_id;sensor_type;location;lat;lon;timestamp;temperature;humidity
33741;DHT22;20065;48.380;10.892;2023-04-09T00:00:11;7.30;99.90
33741;DHT22;20065;48.380;10.892;2023-04-09T00:03:00;7.40;99.90
33741;DHT22;20065;48.380;10.892;2023-04-09T00:05:47;7.40;99.90
33741;DHT22;20065;48.380;10.892;2023-04-09T00:08:33;7.40;99.90
33741;DHT22;20065;48.380;10.892;2023-04-09T00:11:20;7.40;99.90
33741;DHT22;20065;48.380;10.892;2023-04-09T00:14:06;7.40;99.90
33741;DHT22;20065;48.380;10.892;2023-04-09T00:16:52;7.30;99.90
33741;DHT22;20065;48.380;10.892;2023-04-09T00:19:39;7.30;99.90
33741;DHT22;20065;48.380;10.892;2023-04-09T00:22:25;7.30;99.90
33741;DHT22;20065;48.380;10.892;2023-04-09T00:25:12;7.30;99.90
33741;DHT22;20065;48.380;10.892;2023-04-09T00:27:58;7.40;99.90
33741;DHT22;20065;48.380;10.892;2023-04-09T00:30:44;7.30;99.90
33741;DHT22;20065;48.380;10.892;2023-04-09T00:33:30;7.30;99.90
33741;DHT22;20065;48.380;10.892;2023-04-09T00:36:17;7.30;99.90
33741;DHT22;20065;48.380;10.892;2023-04-09T00:39:03;7.30;99.90
33741;DHT22;20065;48.380;10.892;2023-04-09T00:41:49;7.30;99.90
33741;DHT22;20065;48.380;10.892;2023-04-09T00:44:35;7.20;99.90
33741;DHT22;20065;48.380;10.892;2023-04-09T00:47:21;7.20;99.90
33741;DHT22;20065;48.380;10.892;2023-04-09T00:50:15;7.20;99.90
33741;DHT22;20065;48.380;10.892;2023-04-09T00:53:04;7.10;99.90
33741;DHT22;20065;48.380;10.892;2023-04-09T00:55:53;7.10;99.90
33741;DHT22;20065;48.380;10.892;2023-04-09T00:58:40;7.10;99.90
33741;DHT22;20065;48.380;10.892;2023-04-09T01:01:26;7.00;99.90
33741;DHT22;20065;48.380;10.892;2023-04-09T01:04:12;7.00;99.90
33741;DHT22;20065;48.380;10.892;2023-04-09T01:07:23;7.00;99.90
33741;DHT22;20065;48.380;10.892;2023-04-09T01:13:22;7.00;99.90
33741;DHT22;20065;48.380;10.892;2023-04-09T01:16:16;7.00;99.90
33741;DHT22;20065;48.380;10.892;2023-04-09T01:19:09;7.00;99.90
33741;DHT22;20065;48.380;10.892;2023-04-09T01:22:01;6.90;99.90
33741;DHT22;20065;48.380;10.892;2023-04-09T01:25:06;6.90;99.90
33741;DHT22;20065;48.380;10.892;2023-04-09T01:31:08;6.80;99.90
33741;DHT22;20065;48.380;10.892;2023-04-09T01:33:57;6.90;99.90
33741;DHT22;20065;48.380;10.892;2023-04-09T01:36:51;6.80;99.90
33741;DHT22;20065;48.380;10.892;2023-04-09T01:39:38;6.80;99.90
33741;DHT22;20065;48.380;10.892;2023-04-09T01:42:26;6.70;99.90
33741;DHT22;20065;48.380;10.892;2023-04-09T01:45:14;6.70;99.90
33741;DHT22;20065;48.380;10.892;2023-04-09T01:48:04;6.60;99.90
33741;DHT22;20065;48.380;10.892;2023-04-09T01:50:51;6.60;99.90
33741;DHT22;20065;48.380;10.892;2023-04-09T01:53:41;6.70;99.90
33741;DHT22;20065;48.380;10.892;2023-04-09T01:56:27;6.70;99.90
33741;DHT22;20065;48.380;10.892;2023-04-09T01:59:14;6.70;99.90
33741;DHT22;20065;48.380;10.892;2023-04-09T02:02:17;6.60;99.90
33741;DHT22;20065;48.380;10.892;2023-04-09T02:05:07;6.60;99.90
33741;DHT22;20065;48.380;10.892;2023-04-09T02:07:56;6.60;99.90
33741;DHT22;20065;48.380;10.892;2023-04-09T02:10:49;6.70;99.90
33741;DHT22;20065;48.380;10.892;2023-04-09T02:13:39;6.70;99.90
33741;DHT22;20065;48.380;10.892;2023-04-09T02:16:27;6.70;99.90
33741;DHT22;20065;48.380;10.892;2023-04-09T02:19:14;6.70;99.90
33741;DHT22;20065;48.380;10.892;2023-04-09T02:22:03;6.70;99.90
33741;DHT22;20065;48.380;10.892;2023-04-09T02:24:49;6.70;99.90
33741;DHT22;20065;48.380;10.892;2023-04-09T02:27:36;6.70;99.90
33741;DHT22;20065;48.380;10.892;2023-04-09T02:30:22;6.70;99.90
33741;DHT22;20065;48.380;10.892;2023-04-09T02:33:08;6.70;99.90
33741;DHT22;20065;48.380;10.892;2023-04-09T02:35:54;6.70;99.90
33741;DHT22;20065;48.380;10.892;2023-04-09T02:38:40;6.60;99.90
33741;DHT22;20065;48.380;10.892;2023-04-09T02:41:29;6.60;99.90
33741;DHT22;20065;48.380;10.892;2023-04-09T02:44:18;6.60;99.90
33741;DHT22;20065;48.380;10.892;2023-04-09T02:47:07;6.60;99.90
33741;DHT22;20065;48.380;10.892;2023-04-09T02:49:56;6.70;99.90
33741;DHT22;20065;48.380;10.892;2023-04-09T02:52:45;6.70;99.90
33741;DHT22;20065;48.380;10.892;2023-04-09T02:55:33;6.70;99.90
33741;DHT22;20065;48.380;10.892;2023-04-09T02:58:30;6.70;99.90
33741;DHT22;20065;48.380;10.892;2023-04-09T03:01:19;6.70;99.90
33741;DHT22;20065;48.380;10.892;2023-04-09T03:04:06;6.60;99.90
33741;DHT22;20065;48.380;10.892;2023-04-09T03:07:01;6.60;99.90
33741;DHT22;20065;48.380;10.892;2023-04-09T03:09:54;6.60;99.90
33741;DHT22;20065;48.380;10.892;2023-04-09T03:12:44;6.60;99.90
33741;DHT22;20065;48.380;10.892;2023-04-09T03:15:49;6.60;99.90
33741;DHT22;20065;48.380;10.892;2023-04-09T03:18:38;6.60;99.90
33741;DHT22;20065;48.380;10.892;2023-04-09T03:21:36;6.60;99.90
33741;DHT22;20065;48.380;10.892;2023-04-09T03:24:39;6.60;99.90
33741;DHT22;20065;48.380;10.892;2023-04-09T03:27:43;6.60;99.90
33741;DHT22;20065;48.380;10.892;2023-04-09T03:30:40;6.70;99.90
33741;DHT22;20065;48.380;10.892;2023-04-09T03:34:01;6.70;99.90
33741;DHT22;20065;48.380;10.892;2023-04-09T03:36:50;6.50;99.90
33741;DHT22;20065;48.380;10.892;2023-04-09T03:39:47;6.40;99.90
33741;DHT22;20065;48.380;10.892;2023-04-09T03:42:36;6.50;99.90
33741;DHT22;20065;48.380;10.892;2023-04-09T03:45:28;6.50;99.90
33741;DHT22;20065;48.380;10.892;2023-04-09T03:48:28;6.50;99.90
33741;DHT22;20065;48.380;10.892;2023-04-09T03:51:20;6.50;99.90
33741;DHT22;20065;48.380;10.892;2023-04-09T03:54:15;6.50;99.90
33741;DHT22;20065;48.380;10.892;2023-04-09T03:57:04;6.50;99.90
33741;DHT22;20065;48.380;10.892;2023-04-09T03:59:54;6.50;99.90
33741;DHT22;20065;48.380;10.892;2023-04-09T04:02:48;6.50;99.90
33741;DHT22;20065;48.380;10.892;2023-04-09T04:05:37;6.60;99.90
33741;DHT22;20065;48.380;10.892;2023-04-09T04:08:30;6.60;99.90
33741;DHT22;20065;48.380;10.892;2023-04-09T04:11:18;6.60;99.90
33741;DHT22;20065;48.380;10.892;2023-04-09T04:14:10;6.70;99.90
33741;DHT22;20065;48.380;10.892;2023-04-09T04:16:59;6.70;99.90
33741;DHT22;20065;48.380;10.892;2023-04-09T04:19:53;6.60;99.90
33741;DHT22;20065;48.380;10.892;2023-04-09T04:22:43;6.60;99.90
33741;DHT22;20065;48.380;10.892;2023-04-09T04:25:30;6.60;99.90
33741;DHT22;20065;48.380;10.892;2023-04-09T04:28:22;6.50;99.90
33741;DHT22;20065;48.380;10.892;2023-04-09T04:31:14;6.50;99.90
33741;DHT22;20065;48.380;10.892;2023-04-09T04:34:05;6.50;99.90
33741;DHT22;20065;48.380;10.892;2023-04-09T04:36:56;6.60;99.90
33741;DHT22;20065;48.380;10.892;2023-04-09T04:39:49;6.60;99.90
33741;DHT22;20065;48.380;10.892;2023-04-09T04:42:43;6.60;99.90
33741;DHT22;20065;48.380;10.892;2023-04-09T04:45:36;6.60;99.90
33741;DHT22;20065;48.380;10.892;2023-04-09T04:48:30;6.60;99.90
33741;DHT22;20065;48.380;10.892;2023-04-09T04:51:19;6.40;99.90
33741;DHT22;20065;48.380;10.892;2023-04-09T04:54:18;6.30;99.90
33741;DHT22;20065;48.380;10.892;2023-04-09T04:57:12;6.20;99.90
33741;DHT22;20065;48.380;10.892;2023-04-09T05:00:00;6.00;99.90
33741;DHT22;20065;48.380;10.892;2023-04-09T05:02:50;6.00;99.90
33741;DHT22;20065;48.380;10.892;2023-04-09T05:05:41;5.90;99.90
33741;DHT22;20065;48.380;10.892;2023-04-09T05:08:29;5.90;99.90
33741;DHT22;20065;48.380;10.892;2023-04-09T05:11:20;5.80;99.90
33741;DHT22;20065;48.380;10.892;2023-04-09T05:14:11;5.90;99.90
33741;DHT22;20065;48.380;10.892;2023-04-09T05:16:58;5.90;99.90
33741;DHT22;20065;48.380;10.892;2023-04-09T05:19:56;6.00;99.90
33741;DHT22;20065;48.380;10.892;2023-04-09T05:22:51;5.90;99.90
33741;DHT22;20065;48.380;10.892;2023-04-09T05:25:44;5.90;99.90
33741;DHT22;20065;48.380;10.892;2023-04-09T05:28:40;5.90;99.90
33741;DHT22;20065;48.380;10.892;2023-04-09T05:31:36;6.00;99.90
33741;DHT22;20065;48.380;10.892;2023-04-09T05:34:29;6.20;99.90
33741;DHT22;20065;48.380;10.892;2023-04-09T05:37:23;6.40;99.90
33741;DHT22;20065;48.380;10.892;2023-04-09T05:40:13;6.60;99.90
33741;DHT22;20065;48.380;10.892;2023-04-09T05:43:00;6.70;99.90
33741;DHT22;20065;48.380;10.892;2023-04-09T05:46:07;6.70;99.90
33741;DHT22;20065;48.380;10.892;2023-04-09T05:48:54;6.80;99.90
33741;DHT22;20065;48.380;10.892;2023-04-09T05:51:43;6.70;99.90
33741;DHT22;20065;48.380;10.892;2023-04-09T05:54:42;6.60;99.90
33741;DHT22;20065;48.380;10.892;2023-04-09T05:57:38;6.70;99.90
33741;DHT22;20065;48.380;10.892;2023-04-09T06:00:32;6.70;99.90
33741;DHT22;20065;48.380;10.892;2023-04-09T06:03:22;6.80;99.90
33741;DHT22;20065;48.380;10.892;2023-04-09T06:06:09;6.80;99.90
33741;DHT22;20065;48.380;10.892;2023-04-09T06:08:59;6.80;99.90
33741;DHT22;20065;48.380;10.892;2023-04-09T06:11:51;6.70;99.90
33741;DHT22;20065;48.380;10.892;2023-04-09T06:14:38;6.70;99.90
33741;DHT22;20065;48.380;10.892;2023-04-09T06:17:33;6.60;99.90
33741;DHT22;20065;48.380;10.892;2023-04-09T06:20:23;6.70;99.90
33741;DHT22;20065;48.380;10.892;2023-04-09T06:23:13;6.80;99.90
33741;DHT22;20065;48.380;10.892;2023-04-09T06:26:05;6.80;99.90
33741;DHT22;20065;48.380;10.892;2023-04-09T06:28:58;6.90;99.90
33741;DHT22;20065;48.380;10.892;2023-04-09T06:31:50;6.90;99.90
33741;DHT22;20065;48.380;10.892;2023-04-09T06:34:42;6.90;99.90
33741;DHT22;20065;48.380;10.892;2023-04-09T06:37:32;6.90;99.90
33741;DHT22;20065;48.380;10.892;2023-04-09T06:40:19;6.80;99.90
33741;DHT22;20065;48.380;10.892;2023-04-09T06:43:13;6.90;99.90
33741;DHT22;20065;48.380;10.892;2023-04-09T06:46:13;7.20;99.90
33741;DHT22;20065;48.380;10.892;2023-04-09T06:49:04;7.20;99.90
33741;DHT22;20065;48.380;10.892;2023-04-09T06:51:59;7.10;99.90
33741;DHT22;20065;48.380;10.892;2023-04-09T06:54:46;7.30;99.90
33741;DHT22;20065;48.380;10.892;2023-04-09T06:57:42;7.30;99.90
33741;DHT22;20065;48.380;10.892;2023-04-09T07:00:30;7.40;99.90
33741;DHT22;20065;48.380;10.892;2023-04-09T07:03:17;7.40;99.90
33741;DHT22;20065;48.380;10.892;2023-04-09T07:06:09;7.50;99.90
33741;DHT22;20065;48.380;10.892;2023-04-09T07:08:58;7.60;99.90
33741;DHT22;20065;48.380;10.892;2023-04-09T07:11:45;7.60;99.90
33741;DHT22;20065;48.380;10.892;2023-04-09T07:14:32;7.50;99.90
33741;DHT22;20065;48.380;10.892;2023-04-09T07:17:21;7.40;99.90
33741;DHT22;20065;48.380;10.892;2023-04-09T07:20:09;7.50;99.90
33741;DHT22;20065;48.380;10.892;2023-04-09T07:22:59;7.60;99.90
33741;DHT22;20065;48.380;10.892;2023-04-09T07:25:46;7.70;99.90
33741;DHT22;20065;48.380;10.892;2023-04-09T07:28:35;7.80;99.90
33741;DHT22;20065;48.380;10.892;2023-04-09T07:31:27;7.60;99.90
33741;DHT22;20065;48.380;10.892;2023-04-09T07:34:15;7.60;99.90
33741;DHT22;20065;48.380;10.892;2023-04-09T07:37:12;7.60;99.90
33741;DHT22;20065;48.380;10.892;2023-04-09T07:40:02;7.80;99.90
33741;DHT22;20065;48.380;10.892;2023-04-09T07:42:54;8.00;99.90
33741;DHT22;20065;48.380;10.892;2023-04-09T07:45:49;8.10;99.90
33741;DHT22;20065;48.380;10.892;2023-04-09T07:48:39;8.30;99.90
33741;DHT22;20065;48.380;10.892;2023-04-09T07:51:32;8.50;99.90
33741;DHT22;20065;48.380;10.892;2023-04-09T07:54:24;8.50;99.90
33741;DHT22;20065;48.380;10.892;2023-04-09T07:57:14;8.60;99.90
33741;DHT22;20065;48.380;10.892;2023-04-09T08:00:04;8.50;99.90
33741;DHT22;20065;48.380;10.892;2023-04-09T08:02:59;8.60;99.90
33741;DHT22;20065;48.380;10.892;2023-04-09T08:05:50;8.70;99.90
33741;DHT22;20065;48.380;10.892;2023-04-09T08:08:37;8.80;99.90
33741;DHT22;20065;48.380;10.892;2023-04-09T08:11:25;8.90;99.90
33741;DHT22;20065;48.380;10.892;2023-04-09T08:14:13;8.80;99.90
33741;DHT22;20065;48.380;10.892;2023-04-09T08:17:00;8.90;99.90
33741;DHT22;20065;48.380;10.892;2023-04-09T08:19:51;9.10;99.90
33741;DHT22;20065;48.380;10.892;2023-04-09T08:22:39;9.10;99.90
33741;DHT22;20065;48.380;10.892;2023-04-09T08:25:26;9.10;99.90
33741;DHT22;20065;48.380;10.892;2023-04-09T08:28:16;9.10;99.90
33741;DHT22;20065;48.380;10.892;2023-04-09T08:31:07;9.00;99.90
33741;DHT22;20065;48.380;10.892;2023-04-09T08:33:54;9.00;99.90
33741;DHT22;20065;48.380;10.892;2023-04-09T08:36:44;9.20;99.90
33741;DHT22;20065;48.380;10.892;2023-04-09T08:39:32;9.40;99.90
33741;DHT22;20065;48.380;10.892;2023-04-09T08:42:18;9.60;99.90
33741;DHT22;20065;48.380;10.892;2023-04-09T08:45:07;9.70;99.90
33741;DHT22;20065;48.380;10.892;2023-04-09T08:47:57;9.60;99.90
33741;DHT22;20065;48.380;10.892;2023-04-09T08:50:50;9.60;99.90
33741;DHT22;20065;48.380;10.892;2023-04-09T08:53:37;9.70;99.90
33741;DHT22;20065;48.380;10.892;2023-04-09T08:56:35;9.80;99.90
33741;DHT22;20065;48.380;10.892;2023-04-09T08:59:47;10.00;99.90
33741;DHT22;20065;48.380;10.892;2023-04-09T09:03:06;10.20;99.90
33741;DHT22;20065;48.380;10.892;2023-04-09T09:05:57;10.20;99.90
33741;DHT22;20065;48.380;10.892;2023-04-09T09:08:49;10.20;99.90
33741;DHT22;20065;48.380;10.892;2023-04-09T09:11:48;10.40;99.90
33741;DHT22;20065;48.380;10.892;2023-04-09T09:14:40;10.60;99.90
33741;DHT22;20065;48.380;10.892;2023-04-09T09:17:56;10.80;99.90
33741;DHT22;20065;48.380;10.892;2023-04-09T09:20:48;11.30;99.90
33741;DHT22;20065;48.380;10.892;2023-04-09T09:23:35;11.60;99.90
33741;DHT22;20065;48.380;10.892;2023-04-09T09:26:28;12.10;99.90
33741;DHT22;20065;48.380;10.892;2023-04-09T09:29:15;13.40;99.90
33741;DHT22;20065;48.380;10.892;2023-04-09T09:32:02;13.80;99.90
33741;DHT22;20065;48.380;10.892;2023-04-09T09:35:05;14.60;99.90
33741;DHT22;20065;48.380;10.892;2023-04-09T09:38:02;15.90;99.30
33741;DHT22;20065;48.380;10.892;2023-04-09T09:40:49;15.60;99.80
33741;DHT22;20065;48.380;10.892;2023-04-09T09:43:39;15.70;98.20
33741;DHT22;20065;48.380;10.892;2023-04-09T09:46:27;16.20;97.80
33741;DHT22;20065;48.380;10.892;2023-04-09T09:49:16;17.40;95.60
33741;DHT22;20065;48.380;10.892;2023-04-09T09:52:07;17.40;93.60
33741;DHT22;20065;48.380;10.892;2023-04-09T09:55:02;18.10;93.90
33741;DHT22;20065;48.380;10.892;2023-04-09T09:58:14;18.60;90.60
33741;DHT22;20065;48.380;10.892;2023-04-09T10:01:07;17.20;91.70
33741;DHT22;20065;48.380;10.892;2023-04-09T10:04:05;14.90;94.00
33741;DHT22;20065;48.380;10.892;2023-04-09T10:07:00;15.20;95.70
33741;DHT22;20065;48.380;10.892;2023-04-09T10:09:51;18.20;93.60
33741;DHT22;20065;48.380;10.892;2023-04-09T10:12:40;19.00;90.90
33741;DHT22;20065;48.380;10.892;2023-04-09T10:15:28;18.90;89.10
33741;DHT22;20065;48.380;10.892;2023-04-09T10:18:17;19.80;87.20
33741;DHT22;20065;48.380;10.892;2023-04-09T10:24:13;21.20;82.90
33741;DHT22;20065;48.380;10.892;2023-04-09T10:27:12;20.60;84.10
33741;DHT22;20065;48.380;10.892;2023-04-09T10:30:07;22.10;79.10
33741;DHT22;20065;48.380;10.892;2023-04-09T10:33:11;23.50;73.10
33741;DHT22;20065;48.380;10.892;2023-04-09T10:36:04;24.20;70.40
33741;DHT22;20065;48.380;10.892;2023-04-09T10:38:54;24.10;66.10
33741;DHT22;20065;48.380;10.892;2023-04-09T10:41:43;22.70;72.70
33741;DHT22;20065;48.380;10.892;2023-04-09T10:44:32;22.40;75.60
33741;DHT22;20065;48.380;10.892;2023-04-09T10:47:31;22.90;76.90
33741;DHT22;20065;48.380;10.892;2023-04-09T10:50:31;23.10;73.60
33741;DHT22;20065;48.380;10.892;2023-04-09T10:53:23;21.60;74.70
33741;DHT22;20065;48.380;10.892;2023-04-09T10:56:27;21.30;85.20
33741;DHT22;20065;48.380;10.892;2023-04-09T10:59:14;22.80;72.00
33741;DHT22;20065;48.380;10.892;2023-04-09T11:02:08;23.20;68.90
33741;DHT22;20065;48.380;10.892;2023-04-09T11:08:13;20.80;71.20
33741;DHT22;20065;48.380;10.892;2023-04-09T11:11:05;19.50;75.70
33741;DHT22;20065;48.380;10.892;2023-04-09T11:14:00;18.50;81.00
33741;DHT22;20065;48.380;10.892;2023-04-09T11:16:49;18.00;81.30
33741;DHT22;20065;48.380;10.892;2023-04-09T11:19:41;17.30;81.70
33741;DHT22;20065;48.380;10.892;2023-04-09T11:22:28;16.90;86.10
33741;DHT22;20065;48.380;10.892;2023-04-09T11:25:30;16.50;85.30
33741;DHT22;20065;48.380;10.892;2023-04-09T11:28:28;16.00;88.20
33741;DHT22;20065;48.380;10.892;2023-04-09T11:31:29;15.80;86.50
33741;DHT22;20065;48.380;10.892;2023-04-09T11:34:18;15.90;86.00
33741;DHT22;20065;48.380;10.892;2023-04-09T11:37:19;16.40;86.90
33741;DHT22;20065;48.380;10.892;2023-04-09T11:40:29;17.80;83.30
33741;DHT22;20065;48.380;10.892;2023-04-09T11:43:29;18.90;79.60
33741;DHT22;20065;48.380;10.892;2023-04-09T11:46:16;19.30;75.60
33741;DHT22;20065;48.380;10.892;2023-04-09T11:49:19;19.60;73.30
33741;DHT22;20065;48.380;10.892;2023-04-09T11:52:10;19.70;75.20
33741;DHT22;20065;48.380;10.892;2023-04-09T11:55:03;19.70;76.50
33741;DHT22;20065;48.380;10.892;2023-04-09T11:58:00;19.70;75.20
33741;DHT22;20065;48.380;10.892;2023-04-09T12:00:48;20.00;76.50
33741;DHT22;20065;48.380;10.892;2023-04-09T12:03:38;19.70;72.80
33741;DHT22;20065;48.380;10.892;2023-04-09T12:06:25;19.10;74.30
33741;DHT22;20065;48.380;10.892;2023-04-09T12:09:15;18.90;74.30
33741;DHT22;20065;48.380;10.892;2023-04-09T12:12:07;19.20;73.60
33741;DHT22;20065;48.380;10.892;2023-04-09T12:14:59;18.90;77.40
33741;DHT22;20065;48.380;10.892;2023-04-09T12:17:57;18.50;75.20
33741;DHT22;20065;48.380;10.892;2023-04-09T12:20:47;18.10;78.60
33741;DHT22;20065;48.380;10.892;2023-04-09T12:23:35;18.10;77.00
33741;DHT22;20065;48.380;10.892;2023-04-09T12:26:27;17.90;81.10
33741;DHT22;20065;48.380;10.892;2023-04-09T12:29:16;18.00;79.30
33741;DHT22;20065;48.380;10.892;2023-04-09T12:32:04;18.20;81.30
33741;DHT22;20065;48.380;10.892;2023-04-09T12:34:54;18.60;81.20
33741;DHT22;20065;48.380;10.892;2023-04-09T12:37:44;18.00;78.40
33741;DHT22;20065;48.380;10.892;2023-04-09T12:40:38;17.10;83.20
33741;DHT22;20065;48.380;10.892;2023-04-09T12:43:31;16.70;83.50
33741;DHT22;20065;48.380;10.892;2023-04-09T12:46:21;16.20;80.50
33741;DHT22;20065;48.380;10.892;2023-04-09T12:49:08;15.70;83.50
33741;DHT22;20065;48.380;10.892;2023-04-09T12:52:04;15.40;86.80
33741;DHT22;20065;48.380;10.892;2023-04-09T12:54:54;15.00;90.30
33741;DHT22;20065;48.380;10.892;2023-04-09T12:57:45;15.00;87.90
33741;DHT22;20065;48.380;10.892;2023-04-09T13:00:37;14.80;87.10
33741;DHT22;20065;48.380;10.892;2023-04-09T13:03:24;14.50;87.80
33741;DHT22;20065;48.380;10.892;2023-04-09T13:06:14;14.50;90.00
33741;DHT22;20065;48.380;10.892;2023-04-09T13:09:08;17.00;85.20
33741;DHT22;20065;48.380;10.892;2023-04-09T13:11:58;20.00;81.00
33741;DHT22;20065;48.380;10.892;2023-04-09T13:14:47;21.80;77.20
33741;DHT22;20065;48.380;10.892;2023-04-09T13:17:34;20.90;72.60
33741;DHT22;20065;48.380;10.892;2023-04-09T13:20:20;19.30;75.30
33741;DHT22;20065;48.380;10.892;2023-04-09T13:23:07;17.90;77.00
33741;DHT22;20065;48.380;10.892;2023-04-09T13:25:57;16.90;79.30
33741;DHT22;20065;48.380;10.892;2023-04-09T13:28:45;16.60;82.00
33741;DHT22;20065;48.380;10.892;2023-04-09T13:31:35;16.70;80.40
33741;DHT22;20065;48.380;10.892;2023-04-09T13:34:22;17.10;83.00
33741;DHT22;20065;48.380;10.892;2023-04-09T13:37:09;17.80;83.90
33741;DHT22;20065;48.380;10.892;2023-04-09T13:39:56;17.90;81.50
33741;DHT22;20065;48.380;10.892;2023-04-09T13:42:44;17.90;78.20
33741;DHT22;20065;48.380;10.892;2023-04-09T13:45:34;17.70;80.10
33741;DHT22;20065;48.380;10.892;2023-04-09T13:48:23;17.00;78.80
33741;DHT22;20065;48.380;10.892;2023-04-09T13:51:11;16.20;82.70
33741;DHT22;20065;48.380;10.892;2023-04-09T13:54:04;15.70;87.70
33741;DHT22;20065;48.380;10.892;2023-04-09T13:56:55;15.50;87.10
33741;DHT22;20065;48.380;10.892;2023-04-09T13:59:47;15.20;90.00
33741;DHT22;20065;48.380;10.892;2023-04-09T14:02:35;15.10;89.30
33741;DHT22;20065;48.380;10.892;2023-04-09T14:05:22;15.00;86.30
33741;DHT22;20065;48.380;10.892;2023-04-09T14:08:11;15.20;90.80
33741;DHT22;20065;48.380;10.892;2023-04-09T14:10:58;15.40;90.10
33741;DHT22;20065;48.380;10.892;2023-04-09T14:13:51;15.50;88.20
33741;DHT22;20065;48.380;10.892;2023-04-09T14:16:45;15.30;88.10
33741;DHT22;20065;48.380;10.892;2023-04-09T14:19:36;15.10;88.60
33741;DHT22;20065;48.380;10.892;2023-04-09T14:22:28;14.60;91.30
33741;DHT22;20065;48.380;10.892;2023-04-09T14:25:20;14.40;90.60
33741;DHT22;20065;48.380;10.892;2023-04-09T14:28:18;14.30;90.40
33741;DHT22;20065;48.380;10.892;2023-04-09T14:31:08;14.20;90.00
33741;DHT22;20065;48.380;10.892;2023-04-09T14:34:05;14.10;90.50
33741;DHT22;20065;48.380;10.892;2023-04-09T14:36:54;14.40;90.80
33741;DHT22;20065;48.380;10.892;2023-04-09T14:39:44;14.50;90.80
33741;DHT22;20065;48.380;10.892;2023-04-09T14:42:31;14.50;90.00
33741;DHT22;20065;48.380;10.892;2023-04-09T14:45:18;14.20;89.60
33741;DHT22;20065;48.380;10.892;2023-04-09T14:48:04;13.70;90.60
33741;DHT22;20065;48.380;10.892;2023-04-09T14:50:51;13.50;91.30
33741;DHT22;20065;48.380;10.892;2023-04-09T14:53:42;13.30;91.60
33741;DHT22;20065;48.380;10.892;2023-04-09T14:56:29;13.30;93.30
33741;DHT22;20065;48.380;10.892;2023-04-09T14:59:18;13.40;91.90
33741;DHT22;20065;48.380;10.892;2023-04-09T15:02:05;13.50;92.10
33741;DHT22;20065;48.380;10.892;2023-04-09T15:04:52;13.70;92.50
33741;DHT22;20065;48.380;10.892;2023-04-09T15:07:42;13.80;91.90
33741;DHT22;20065;48.380;10.892;2023-04-09T15:10:29;13.80;90.80
33741;DHT22;20065;48.380;10.892;2023-04-09T15:13:18;13.60;91.00
33741;DHT22;20065;48.380;10.892;2023-04-09T15:16:27;13.30;91.60
33741;DHT22;20065;48.380;10.892;2023-04-09T15:19:16;13.10;91.20
33741;DHT22;20065;48.380;10.892;2023-04-09T15:22:06;12.90;91.40
33741;DHT22;20065;48.380;10.892;2023-04-09T15:24:52;12.80;91.50
33741;DHT22;20065;48.380;10.892;2023-04-09T15:27:39;12.90;91.60
33741;DHT22;20065;48.380;10.892;2023-04-09T15:30:26;13.00;91.70
33741;DHT22;20065;48.380;10.892;2023-04-09T15:33:13;13.20;91.80
33741;DHT22;20065;48.380;10.892;2023-04-09T15:36:03;13.20;91.10
33741;DHT22;20065;48.380;10.892;2023-04-09T15:38:54;13.20;91.30
33741;DHT22;20065;48.380;10.892;2023-04-09T15:41:47;13.30;91.70
33741;DHT22;20065;48.380;10.892;2023-04-09T15:44:36;13.30;90.70
33741;DHT22;20065;48.380;10.892;2023-04-09T15:47:27;13.50;91.90
33741;DHT22;20065;48.380;10.892;2023-04-09T15:50:17;13.60;91.00
33741;DHT22;20065;48.380;10.892;2023-04-09T15:53:04;14.00;90.90
33741;DHT22;20065;48.380;10.892;2023-04-09T15:55:55;14.20;91.10
33741;DHT22;20065;48.380;10.892;2023-04-09T15:58:58;14.30;91.10
33741;DHT22;20065;48.380;10.892;2023-04-09T16:01:47;14.30;91.30
33741;DHT22;20065;48.380;10.892;2023-04-09T16:04:34;14.00;90.70
33741;DHT22;20065;48.380;10.892;2023-04-09T16:07:23;13.50;91.70
33741;DHT22;20065;48.380;10.892;2023-04-09T16:10:16;13.20;92.50
33741;DHT22;20065;48.380;10.892;2023-04-09T16:13:15;13.00;92.10
33741;DHT22;20065;48.380;10.892;2023-04-09T16:16:03;12.60;92.40
33741;DHT22;20065;48.380;10.892;2023-04-09T16:18:50;12.20;92.80
33741;DHT22;20065;48.380;10.892;2023-04-09T16:21:37;12.00;93.50
33741;DHT22;20065;48.380;10.892;2023-04-09T16:24:29;11.80;94.10
33741;DHT22;20065;48.380;10.892;2023-04-09T16:27:17;11.80;94.50
33741;DHT22;20065;48.380;10.892;2023-04-09T16:30:04;11.80;94.50
33741;DHT22;20065;48.380;10.892;2023-04-09T16:32:52;11.90;94.80
33741;DHT22;20065;48.380;10.892;2023-04-09T16:35:44;11.80;94.80
33741;DHT22;20065;48.380;10.892;2023-04-09T16:38:32;11.80;94.80
33741;DHT22;20065;48.380;10.892;2023-04-09T16:41:22;11.80;94.70
33741;DHT22;20065;48.380;10.892;2023-04-09T16:44:09;11.80;95.20
33741;DHT22;20065;48.380;10.892;2023-04-09T16:46:56;11.80;95.10
33741;DHT22;20065;48.380;10.892;2023-04-09T16:49:43;11.70;95.20
33741;DHT22;20065;48.380;10.892;2023-04-09T16:52:30;11.70;95.60
33741;DHT22;20065;48.380;10.892;2023-04-09T16:55:22;11.60;95.60
33741;DHT22;20065;48.380;10.892;2023-04-09T16:58:10;11.60;96.00
33741;DHT22;20065;48.380;10.892;2023-04-09T17:00:57;11.50;95.70
33741;DHT22;20065;48.380;10.892;2023-04-09T17:03:47;11.50;95.60
33741;DHT22;20065;48.380;10.892;2023-04-09T17:06:34;11.40;95.30
33741;DHT22;20065;48.380;10.892;2023-04-09T17:09:21;11.40;95.20
33741;DHT22;20065;48.380;10.892;2023-04-09T17:12:09;11.30;95.10
33741;DHT22;20065;48.380;10.892;2023-04-09T17:14:56;11.20;95.30
33741;DHT22;20065;48.380;10.892;2023-04-09T17:17:45;11.20;95.60
33741;DHT22;20065;48.380;10.892;2023-04-09T17:20:35;11.10;95.60
33741;DHT22;20065;48.380;10.892;2023-04-09T17:23:22;11.00;95.90
33741;DHT22;20065;48.380;10.892;2023-04-09T17:26:09;11.10;96.30
33741;DHT22;20065;48.380;10.892;2023-04-09T17:28:59;11.10;96.80
33741;DHT22;20065;48.380;10.892;2023-04-09T17:31:48;11.00;96.80
33741;DHT22;20065;48.380;10.892;2023-04-09T17:34:38;10.90;96.80
33741;DHT22;20065;48.380;10.892;2023-04-09T17:37:34;10.80;96.80
33741;DHT22;20065;48.380;10.892;2023-04-09T17:40:21;10.80;97.00
33741;DHT22;20065;48.380;10.892;2023-04-09T17:43:08;10.70;97.10
33741;DHT22;20065;48.380;10.892;2023-04-09T17:46:02;10.60;97.40
33741;DHT22;20065;48.380;10.892;2023-04-09T17:48:57;10.60;97.60
33741;DHT22;20065;48.380;10.892;2023-04-09T17:51:49;10.50;97.40
33741;DHT22;20065;48.380;10.892;2023-04-09T17:54:37;10.50;97.50
33741;DHT22;20065;48.380;10.892;2023-04-09T17:57:30;10.50;97.70
33741;DHT22;20065;48.380;10.892;2023-04-09T18:00:31;10.50;97.80
33741;DHT22;20065;48.380;10.892;2023-04-09T18:03:24;10.40;97.80